Liberta — V2CM3 — position and weather

sailwx.info

Track history (hours):
 
Tides and Currents Weather Stations Pressure Air Temp Water Temp Dewpoint Dewpoint Depression Visibility Wind Speed Wind Dir Waves Ship Positions

Liberta

Last reported at 2017-Dec-08 12:38 UTC. Time now 2017-Dec-12 23:52 UTC.
Position N 25°19' W 079°48'.

Length 138 m; draft 7.2 m.

Type: Cargo ship. MMSI: 305043000.

Date/timePositionNaut miles runAvg speedWind from/ knotsBaromVisibWave heightAir tempDewpointWater temp
2017-Dec-08 12:38N 25°19' W 079°48'210.6
2017-Dec-08 12:28N 25°21' W 079°49'510.5
2017-Dec-08 12:00N 25°26' W 079°50'510.3
2017-Dec-08 11:30N 25°31' W 079°51'510.1
2017-Dec-08 11:00N 25°36' W 079°52'5 9.8
2017-Dec-08 10:30N 25°40' W 079°53'5 9.7
2017-Dec-08 10:00N 25°45' W 079°53'5 9.8
2017-Dec-08 09:30N 25°50' W 079°54'510.4
2017-Dec-08 09:00N 25°54' W 079°58'611.0
2017-Dec-08 08:30N 25°59' W 079°60'510.7
2017-Dec-08 08:00N 26°04' W 080°02'5 9.1
2017-Dec-08 07:30N 26°06' W 080°07'0 0.9
2017-Dec-08 06:58N 26°06' W 080°07'0 0.0
2017-Dec-08 06:28N 26°06' W 080°07'0 0.0
2017-Dec-08 05:58N 26°06' W 080°07'0 0.0
2017-Dec-08 05:28N 26°06' W 080°07'0 0.0
2017-Dec-08 04:58N 26°06' W 080°07'0 0.0
2017-Dec-08 04:28N 26°06' W 080°07'0 0.0
2017-Dec-08 03:58N 26°06' W 080°07'0 0.0
2017-Dec-08 03:28N 26°06' W 080°07'0 0.0
2017-Dec-08 02:58N 26°06' W 080°07'0 0.0
2017-Dec-08 02:28N 26°06' W 080°07'0 0.0
2017-Dec-08 01:58N 26°06' W 080°07'0 0.0
2017-Dec-08 01:28N 26°06' W 080°07'0 0.0
2017-Dec-08 00:49N 26°06' W 080°07'0 0.0
2017-Dec-08 00:19N 26°06' W 080°07'0 0.0
2017-Dec-07 23:49N 26°06' W 080°07'0 0.0
2017-Dec-07 23:22N 26°06' W 080°07'0 0.0
2017-Dec-07 22:52N 26°06' W 080°07'0 0.0
2017-Dec-07 22:22N 26°06' W 080°07'0 0.0
2017-Dec-07 21:52N 26°06' W 080°07'0 0.0
2017-Dec-07 21:22N 26°06' W 080°07'0 0.0
2017-Dec-07 20:55N 26°06' W 080°07'0 0.0
2017-Dec-07 20:25N 26°06' W 080°07'0 0.0
2017-Dec-07 19:55N 26°06' W 080°07'0 0.0
2017-Dec-07 19:10N 26°06' W 080°07'0 0.0
2017-Dec-07 18:55N 26°06' W 080°07'0 0.0
2017-Dec-07 18:25N 26°06' W 080°07'0 0.0
2017-Dec-07 17:58N 26°06' W 080°07'0 0.0
2017-Dec-07 17:28N 26°06' W 080°07'0 0.0
2017-Dec-07 16:58N 26°06' W 080°07'0 0.0
2017-Dec-07 16:28N 26°06' W 080°07'0 0.0
2017-Dec-07 15:58N 26°06' W 080°07'0 0.0
2017-Dec-07 15:25N 26°06' W 080°07'0 0.0
2017-Dec-07 14:58N 26°06' W 080°07'0 0.0
2017-Dec-07 14:28N 26°06' W 080°07'0 0.0
2017-Dec-07 13:58N 26°06' W 080°07'0 0.0
2017-Dec-07 13:28N 26°06' W 080°07'0 0.0
2017-Dec-07 12:58N 26°06' W 080°07'0 0.0
2017-Dec-07 12:28N 26°06' W 080°07'0 0.0
2017-Dec-07 11:58N 26°06' W 080°07'0 0.0
2017-Dec-07 11:28N 26°06' W 080°07'0 0.0
2017-Dec-07 10:49N 26°06' W 080°07'0 0.0
2017-Dec-07 10:19N 26°06' W 080°07'0 0.0
2017-Dec-07 09:49N 26°06' W 080°07'0 0.0
2017-Dec-07 09:22N 26°06' W 080°07'0 0.0
2017-Dec-07 08:52N 26°06' W 080°07'0 0.0
2017-Dec-07 08:22N 26°06' W 080°07'0 0.0
2017-Dec-07 07:52N 26°06' W 080°07'0 0.0
2017-Dec-07 07:22N 26°06' W 080°07'0 0.0
2017-Dec-07 06:55N 26°06' W 080°07'0 0.0
2017-Dec-07 06:22N 26°06' W 080°07'0 0.0
2017-Dec-07 05:55N 26°06' W 080°07'0 0.0
2017-Dec-07 05:25N 26°06' W 080°07'0 0.0
2017-Dec-07 04:55N 26°06' W 080°07'0 0.0
2017-Dec-07 04:13N 26°06' W 080°07'0 0.0
2017-Dec-07 03:58N 26°06' W 080°07'0 0.0
2017-Dec-07 03:28N 26°06' W 080°07'0 0.0
2017-Dec-07 02:58N 26°06' W 080°07'1 1.1
2017-Dec-07 02:30N 26°06' W 080°07'3 6.4
2017-Dec-07 02:00N 26°07' W 080°04'1 1.2
2017-Dec-07 01:28N 26°08' W 080°04'0 0.1
2017-Dec-07 00:58N 26°08' W 080°05'0 0.0
2017-Dec-07 00:28N 26°08' W 080°05'0 0.0
2017-Dec-06 23:58N 26°08' W 080°05'0 0.0
2017-Dec-06 23:28N 26°08' W 080°05'0 0.0
2017-Dec-06 22:58N 26°08' W 080°05'0 0.0
2017-Dec-06 22:28N 26°08' W 080°05'0 0.0
2017-Dec-06 21:58N 26°08' W 080°05'0 0.0
2017-Dec-06 21:28N 26°08' W 080°05'0 0.0
2017-Dec-06 20:58N 26°08' W 080°05'  
2017-Dec-04 10:23N 32°05' W 081°04'0 0.0
2017-Dec-04 09:53N 32°05' W 081°04'0 0.0
2017-Dec-04 09:23N 32°05' W 081°04'0 0.0
2017-Dec-04 08:59N 32°05' W 081°04'0 0.0
2017-Dec-04 08:29N 32°05' W 081°04'0 0.0
2017-Dec-04 07:59N 32°05' W 081°04'0 0.0
2017-Dec-04 07:29N 32°05' W 081°04'0 0.0
2017-Dec-04 06:59N 32°05' W 081°04'0 0.0
2017-Dec-04 06:23N 32°05' W 081°04'0 0.0
2017-Dec-04 05:59N 32°05' W 081°04'0 0.0
2017-Dec-04 05:29N 32°05' W 081°04'0 0.0
2017-Dec-04 04:59N 32°05' W 081°04'0 0.0
2017-Dec-04 04:29N 32°05' W 081°04'0 0.0
2017-Dec-04 03:53N 32°05' W 081°04'0 0.0
2017-Dec-04 03:29N 32°05' W 081°04'0 0.0
2017-Dec-04 02:59N 32°05' W 081°04'0 0.0
2017-Dec-04 02:29N 32°05' W 081°04'0 0.0
2017-Dec-04 01:59N 32°05' W 081°04'0 0.0
2017-Dec-04 01:29N 32°05' W 081°04'0 0.0
2017-Dec-04 00:59N 32°05' W 081°04'0 0.0
2017-Dec-04 00:29N 32°05' W 081°04'0 0.0
2017-Dec-03 23:59N 32°05' W 081°04'0 0.0
2017-Dec-03 23:29N 32°05' W 081°04'0 0.0
2017-Dec-03 22:59N 32°05' W 081°04'0 0.0
2017-Dec-03 22:29N 32°05' W 081°04'0 0.0
2017-Dec-03 21:59N 32°05' W 081°04'0 0.0
2017-Dec-03 21:29N 32°05' W 081°04'0 0.0
2017-Dec-03 20:59N 32°05' W 081°04'0 0.0
2017-Dec-03 20:29N 32°05' W 081°04'0 0.0
2017-Dec-03 19:59N 32°05' W 081°04'0 0.0
2017-Dec-03 19:17N 32°05' W 081°04'0 0.0
2017-Dec-03 18:59N 32°05' W 081°04'0 0.0
2017-Dec-03 18:29N 32°05' W 081°04'0 0.0
2017-Dec-03 17:59N 32°05' W 081°04'0 0.0
2017-Dec-03 17:29N 32°05' W 081°04'0 0.0
2017-Dec-03 16:59N 32°05' W 081°04'0 0.0
2017-Dec-03 16:29N 32°05' W 081°04'0 0.0
2017-Dec-03 15:59N 32°05' W 081°04'0 0.0
2017-Dec-03 15:29N 32°05' W 081°04'0 0.0
2017-Dec-03 14:53N 32°05' W 081°04'0 0.0
2017-Dec-03 14:29N 32°05' W 081°04'0 0.0
2017-Dec-03 13:59N 32°05' W 081°04'0 0.0
2017-Dec-03 13:23N 32°05' W 081°04'0 0.0
2017-Dec-03 12:59N 32°05' W 081°04'0 0.0
2017-Dec-03 12:29N 32°05' W 081°04'0 0.0
2017-Dec-03 11:59N 32°05' W 081°04'0 0.0
2017-Dec-03 11:29N 32°05' W 081°04'0 0.0
2017-Dec-03 10:59N 32°05' W 081°04'0 0.0
2017-Dec-03 10:29N 32°05' W 081°04'0 0.0
2017-Dec-03 09:59N 32°05' W 081°04'0 0.0
2017-Dec-03 09:29N 32°05' W 081°04'0 0.0
2017-Dec-03 08:59N 32°05' W 081°04'0 0.0
2017-Dec-03 08:23N 32°05' W 081°04'0 0.0
2017-Dec-03 07:59N 32°05' W 081°04'0 0.0
2017-Dec-03 07:29N 32°05' W 081°04'0 0.0
2017-Dec-03 06:59N 32°05' W 081°04'0 0.0
2017-Dec-03 06:23N 32°05' W 081°04'0 0.0
2017-Dec-03 05:59N 32°05' W 081°04'0 0.0
2017-Dec-03 05:29N 32°05' W 081°04'0 0.0
2017-Dec-03 04:59N 32°05' W 081°04'0 0.0
2017-Dec-03 04:29N 32°05' W 081°04'0 0.0
2017-Dec-03 03:59N 32°05' W 081°04'0 0.0
2017-Dec-03 03:29N 32°05' W 081°04'0 0.0
2017-Dec-03 02:59N 32°05' W 081°04'0 0.0
2017-Dec-03 02:29N 32°05' W 081°04'0 0.0
2017-Dec-03 01:59N 32°05' W 081°04'0 0.0
2017-Dec-03 01:29N 32°05' W 081°04'0 0.0
2017-Dec-03 00:59N 32°05' W 081°04'0 0.0
2017-Dec-03 00:29N 32°05' W 081°04'0 0.0
2017-Dec-02 23:59N 32°05' W 081°04'0 0.0
2017-Dec-02 23:29N 32°05' W 081°04'0 0.0
2017-Dec-02 22:59N 32°05' W 081°04'0 0.0
2017-Dec-02 22:29N 32°05' W 081°04'0 0.0
2017-Dec-02 21:59N 32°05' W 081°04'0 0.0
2017-Dec-02 21:29N 32°05' W 081°04'0 0.0
2017-Dec-02 20:59N 32°05' W 081°04'0 0.0
2017-Dec-02 20:29N 32°05' W 081°04'0 0.0
2017-Dec-02 19:59N 32°05' W 081°04'0 0.0
2017-Dec-02 19:29N 32°05' W 081°04'0 0.0
2017-Dec-02 18:59N 32°05' W 081°04'0 0.0
2017-Dec-02 18:29N 32°05' W 081°04'0 0.0
2017-Dec-02 17:59N 32°05' W 081°04'0 0.0
2017-Dec-02 17:29N 32°05' W 081°04'0 0.0
2017-Dec-02 16:53N 32°05' W 081°04'0 0.0
2017-Dec-02 16:29N 32°05' W 081°04'0 0.0
2017-Dec-02 15:59N 32°05' W 081°04'0 0.0
2017-Dec-02 15:17N 32°05' W 081°04'0 0.0
2017-Dec-02 14:59N 32°05' W 081°04'0 0.0
2017-Dec-02 14:29N 32°05' W 081°04'0 0.0
2017-Dec-02 13:59N 32°05' W 081°04'0 0.0
2017-Dec-02 13:23N 32°05' W 081°04'0 0.0
2017-Dec-02 12:59N 32°05' W 081°04'0 0.0
2017-Dec-02 12:29N 32°05' W 081°04'0 0.0
2017-Dec-02 11:59N 32°05' W 081°04'0 0.0
2017-Dec-02 11:29N 32°05' W 081°04'0 0.0
2017-Dec-02 10:59N 32°05' W 081°04'0 0.0
2017-Dec-02 10:29N 32°05' W 081°04'0 0.0
2017-Dec-02 09:59N 32°05' W 081°04'0 0.0
2017-Dec-02 09:29N 32°05' W 081°04'0 0.0
2017-Dec-02 08:59N 32°05' W 081°04'0 0.0
2017-Dec-02 08:29N 32°05' W 081°04'0 0.0
2017-Dec-02 07:59N 32°05' W 081°04'0 0.0
2017-Dec-02 07:29N 32°05' W 081°04'0 0.0
2017-Dec-02 06:53N 32°05' W 081°04'0 0.0
2017-Dec-02 06:29N 32°05' W 081°04'0 0.0
2017-Dec-02 05:59N 32°05' W 081°04'0 0.0
2017-Dec-02 05:29N 32°05' W 081°04'0 0.0
2017-Dec-02 04:59N 32°05' W 081°04'0 0.0
2017-Dec-02 04:29N 32°05' W 081°04'0 0.0
2017-Dec-02 03:59N 32°05' W 081°04'0 0.0
2017-Dec-02 03:29N 32°05' W 081°04'0 0.0
2017-Dec-02 02:59N 32°05' W 081°04'0 0.0
2017-Dec-02 02:29N 32°05' W 081°04'0 0.0
2017-Dec-02 01:59N 32°05' W 081°04'0 0.0
2017-Dec-02 01:29N 32°05' W 081°04'0 0.0
2017-Dec-02 00:59N 32°05' W 081°04'0 0.0
2017-Dec-02 00:29N 32°05' W 081°04'0 0.0
2017-Dec-01 23:59N 32°05' W 081°04'0 0.0
2017-Dec-01 23:29N 32°05' W 081°04'0 0.0
2017-Dec-01 22:53N 32°05' W 081°04'0 0.0
2017-Dec-01 22:29N 32°05' W 081°04'0 0.0
2017-Dec-01 21:59N 32°05' W 081°04'0 0.0
2017-Dec-01 21:29N 32°05' W 081°04'0 0.0
2017-Dec-01 20:59N 32°05' W 081°04'0 0.0
2017-Dec-01 20:29N 32°05' W 081°04'0 0.0
2017-Dec-01 19:59N 32°05' W 081°04'0 0.0
2017-Dec-01 19:29N 32°05' W 081°04'0 0.0
2017-Dec-01 18:59N 32°05' W 081°04'0 0.0
2017-Dec-01 18:29N 32°05' W 081°04'0 0.0
2017-Dec-01 17:59N 32°05' W 081°04'0 0.0
2017-Dec-01 17:29N 32°05' W 081°04'0 0.0
2017-Dec-01 16:59N 32°05' W 081°04'0 0.0
2017-Dec-01 16:23N 32°05' W 081°04'0 0.0
2017-Dec-01 15:53N 32°05' W 081°04'0 0.0
2017-Dec-01 15:29N 32°05' W 081°04'0 0.0
2017-Dec-01 14:59N 32°05' W 081°04'0 0.0
2017-Dec-01 14:29N 32°05' W 081°04'0 0.0
2017-Dec-01 13:59N 32°05' W 081°04'0 0.0
2017-Dec-01 13:29N 32°05' W 081°04'0 0.0
2017-Dec-01 12:53N 32°05' W 081°04'0 0.0
2017-Dec-01 12:29N 32°05' W 081°04'0 0.0
2017-Dec-01 11:53N 32°05' W 081°04'0 0.0
2017-Dec-01 11:29N 32°05' W 081°04'0 0.0
2017-Dec-01 10:59N 32°05' W 081°04'0 0.0
2017-Dec-01 10:29N 32°05' W 081°04'0 0.0
2017-Dec-01 09:59N 32°05' W 081°04'0 0.0
2017-Dec-01 09:29N 32°05' W 081°04'0 0.0
2017-Dec-01 08:59N 32°05' W 081°04'0 0.0
2017-Dec-01 08:23N 32°05' W 081°04'0 0.0
2017-Dec-01 07:59N 32°05' W 081°04'0 0.0
2017-Dec-01 07:29N 32°05' W 081°04'0 0.0
2017-Dec-01 06:59N 32°05' W 081°04'0 0.0
2017-Dec-01 06:29N 32°05' W 081°04'0 0.0
2017-Dec-01 05:59N 32°05' W 081°04'0 0.0
2017-Dec-01 05:29N 32°05' W 081°04'0 0.0
2017-Dec-01 04:59N 32°05' W 081°04'0 0.0
2017-Dec-01 04:29N 32°05' W 081°04'0 0.0
2017-Dec-01 03:47N 32°05' W 081°04'0 0.0
2017-Dec-01 03:30N 32°05' W 081°04'2 3.9
2017-Dec-01 03:00N 32°06' W 081°06'3 6.9
2017-Dec-01 02:30N 32°08' W 081°09'0 0.5
2017-Dec-01 02:00N 32°09' W 081°09'0 0.0
2017-Dec-01 01:30N 32°09' W 081°09'0 0.0
2017-Dec-01 00:54N 32°09' W 081°09'0 0.0
2017-Dec-01 00:30N 32°09' W 081°09'0 0.0
2017-Dec-01 00:00N 32°09' W 081°09'0 0.0
2017-Nov-30 23:30N 32°09' W 081°09'0 0.0
2017-Nov-30 22:54N 32°09' W 081°09'0 0.0
2017-Nov-30 22:30N 32°09' W 081°09'0 0.0
2017-Nov-30 22:00N 32°09' W 081°09'0 0.0
2017-Nov-30 21:18N 32°09' W 081°09'0 0.0
2017-Nov-30 21:00N 32°09' W 081°09'0 0.0
2017-Nov-30 20:30N 32°09' W 081°09'0 0.0
2017-Nov-30 20:00N 32°09' W 081°09'0 0.0
2017-Nov-30 19:30N 32°09' W 081°09'0 0.0
2017-Nov-30 18:54N 32°09' W 081°09'0 0.0
2017-Nov-30 18:30N 32°09' W 081°09'0 0.0
2017-Nov-30 18:00N 32°09' W 081°09'0 0.0
2017-Nov-30 17:30N 32°09' W 081°09'0 0.0
2017-Nov-30 17:00N 32°09' W 081°09'0 0.0
2017-Nov-30 16:30N 32°09' W 081°09'0 0.0
2017-Nov-30 15:48N 32°09' W 081°09'0 0.0
2017-Nov-30 15:30N 32°09' W 081°09'0 0.0
2017-Nov-30 15:00N 32°09' W 081°09'0 0.0
2017-Nov-30 14:30N 32°09' W 081°09'0 0.0
2017-Nov-30 14:00N 32°09' W 081°09'0 0.0
2017-Nov-30 13:30N 32°09' W 081°09'0 0.0
2017-Nov-30 13:00N 32°09' W 081°09'0 0.0
2017-Nov-30 12:30N 32°09' W 081°09'0 0.0
2017-Nov-30 12:00N 32°09' W 081°09'0 0.0
2017-Nov-30 11:30N 32°09' W 081°09'0 0.0
2017-Nov-30 11:00N 32°09' W 081°09'0 0.0
2017-Nov-30 10:30N 32°09' W 081°09'0 0.0
2017-Nov-30 10:00N 32°09' W 081°09'0 0.0
2017-Nov-30 09:30N 32°09' W 081°09'0 0.0
2017-Nov-30 09:00N 32°09' W 081°09'0 0.0
2017-Nov-30 08:30N 32°09' W 081°09'0 0.0
2017-Nov-30 07:54N 32°09' W 081°09'0 0.0
2017-Nov-30 07:30N 32°09' W 081°09'0 0.0
2017-Nov-30 06:48N 32°09' W 081°09'0 0.0
2017-Nov-30 06:30N 32°09' W 081°09'0 0.0
2017-Nov-30 06:00N 32°09' W 081°09'0 0.0
2017-Nov-30 05:30N 32°09' W 081°09'0 0.0
2017-Nov-30 05:00N 32°09' W 081°09'0 0.0
2017-Nov-30 04:30N 32°09' W 081°09'0 0.0
2017-Nov-30 03:54N 32°09' W 081°09'0 0.0
2017-Nov-30 03:30N 32°09' W 081°09'0 0.0
2017-Nov-30 03:00N 32°09' W 081°09'0 0.0
2017-Nov-30 02:30N 32°09' W 081°09'0 0.0
2017-Nov-30 02:00N 32°09' W 081°09'0 0.0
2017-Nov-30 01:24N 32°09' W 081°09'0 0.0
2017-Nov-30 00:54N 32°09' W 081°09'0 0.0
2017-Nov-30 00:30N 32°09' W 081°09'2 3.3
2017-Nov-30 00:00N 32°07' W 081°08'3 5.6
2017-Nov-29 23:30N 32°05' W 081°06'3 6.4
2017-Nov-29 23:00N 32°05' W 081°02'5 9.7
2017-Nov-29 22:30N 32°03' W 080°56'612.0
2017-Nov-29 22:00N 32°02' W 080°50'713.2
2017-Nov-29 21:30N 31°58' W 080°43'4 8.4
2017-Nov-29 21:00N 31°58' W 080°38'3 5.9
2017-Nov-29 20:30N 32°00' W 080°37'0 0.1
2017-Nov-29 19:50N 32°00' W 080°37'0 0.0
2017-Nov-29 19:26N 32°00' W 080°37'0 0.0
2017-Nov-29 18:56N 32°00' W 080°37'0 0.0
2017-Nov-29 18:20N 32°00' W 080°37'0 0.0
2017-Nov-29 17:50N 32°00' W 080°37'0 0.0
2017-Nov-29 17:08N 32°00' W 080°37'0 0.0
2017-Nov-29 16:20N 32°00' W 080°37'0 0.0
2017-Nov-29 15:56N 32°00' W 080°37'0 0.0
2017-Nov-29 15:26N 32°00' W 080°37'0 0.0
2017-Nov-29 14:56N 32°00' W 080°37'0 0.0
2017-Nov-29 14:26N 32°00' W 080°37'0 0.0
2017-Nov-29 13:56N 32°00' W 080°37'0 0.0
2017-Nov-29 13:26N 32°00' W 080°37'0 0.0
2017-Nov-29 12:56N 32°00' W 080°37'0 0.0
2017-Nov-29 12:26N 32°00' W 080°37'0 0.0
2017-Nov-29 11:56N 32°00' W 080°37'0 0.0
2017-Nov-29 11:26N 32°00' W 080°37'0 0.1
2017-Nov-29 10:56N 32°00' W 080°37'0 0.0
2017-Nov-29 10:26N 32°00' W 080°37'0 0.0
2017-Nov-29 09:44N 32°00' W 080°37'0 0.0
2017-Nov-29 09:26N 32°00' W 080°37'0 0.0
2017-Nov-29 08:44N 32°00' W 080°37'0 0.0
2017-Nov-29 07:50N 32°00' W 080°37'0 0.0
2017-Nov-29 02:32N 32°00' W 080°37'0 0.1
2017-Nov-29 02:26N 32°00' W 080°37'0 0.0
2017-Nov-29 01:56N 32°00' W 080°37'0 0.0
2017-Nov-29 01:26N 32°00' W 080°37'0 0.0
2017-Nov-29 00:50N 32°00' W 080°37'0 0.0
2017-Nov-29 00:26N 32°00' W 080°37'0 0.0
2017-Nov-28 23:56N 32°00' W 080°37'0 0.0
2017-Nov-28 23:26N 32°00' W 080°37'0 0.0
2017-Nov-28 22:56N 32°00' W 080°37'0 0.0
2017-Nov-28 22:26N 32°00' W 080°37'0 0.0
2017-Nov-28 21:50N 32°00' W 080°37'0 0.0
2017-Nov-28 21:20N 32°00' W 080°37'0 0.0
2017-Nov-28 20:56N 32°00' W 080°37'0 0.0
2017-Nov-28 20:26N 32°00' W 080°37'0 0.0
2017-Nov-28 19:44N 32°00' W 080°37'0 0.0
2017-Nov-28 19:20N 32°00' W 080°37'0 0.0
2017-Nov-28 18:56N 32°00' W 080°37'0 0.0
2017-Nov-28 18:26N 32°00' W 080°37'0 0.0
2017-Nov-28 17:56N 32°00' W 080°37'0 0.0
2017-Nov-28 17:26N 32°00' W 080°37'0 0.0
2017-Nov-28 16:56N 32°00' W 080°37'0 0.0
2017-Nov-28 16:26N 32°00' W 080°37'0 0.0
2017-Nov-28 15:50N 32°00' W 080°37'0 0.0
2017-Nov-28 14:56N 32°00' W 080°37'0 0.0
2017-Nov-28 14:26N 32°00' W 080°37'0 0.0
2017-Nov-28 13:02N 32°00' W 080°37'0 0.0
2017-Nov-28 12:56N 32°00' W 080°37'  
Track history (hours):
 
Tides and Currents Weather Stations Pressure Air Temp Water Temp Dewpoint Dewpoint Depression Visibility Wind Speed Wind Dir Waves Ship Positions

Liberta

Last reported at 2017-Dec-08 12:38 UTC. Time now 2017-Dec-12 23:52 UTC.
Position N 25°19' W 079°48'.

Length 138 m; draft 7.2 m.

Type: Cargo ship. MMSI: 305043000.

Date/timePositionNaut miles runAvg speedWind from/ knotsBaromVisibWave heightAir tempDewpointWater temp
2017-Dec-08 12:38N 25°19' W 079°48'210.6
2017-Dec-08 12:28N 25°21' W 079°49'510.5
2017-Dec-08 12:00N 25°26' W 079°50'510.3
2017-Dec-08 11:30N 25°31' W 079°51'510.1
2017-Dec-08 11:00N 25°36' W 079°52'5 9.8
2017-Dec-08 10:30N 25°40' W 079°53'5 9.7
2017-Dec-08 10:00N 25°45' W 079°53'5 9.8
2017-Dec-08 09:30N 25°50' W 079°54'510.4
2017-Dec-08 09:00N 25°54' W 079°58'611.0
2017-Dec-08 08:30N 25°59' W 079°60'510.7
2017-Dec-08 08:00N 26°04' W 080°02'5 9.1
2017-Dec-08 07:30N 26°06' W 080°07'0 0.9
2017-Dec-08 06:58N 26°06' W 080°07'0 0.0
2017-Dec-08 06:28N 26°06' W 080°07'0 0.0
2017-Dec-08 05:58N 26°06' W 080°07'0 0.0
2017-Dec-08 05:28N 26°06' W 080°07'0 0.0
2017-Dec-08 04:58N 26°06' W 080°07'0 0.0
2017-Dec-08 04:28N 26°06' W 080°07'0 0.0
2017-Dec-08 03:58N 26°06' W 080°07'0 0.0
2017-Dec-08 03:28N 26°06' W 080°07'0 0.0
2017-Dec-08 02:58N 26°06' W 080°07'0 0.0
2017-Dec-08 02:28N 26°06' W 080°07'0 0.0
2017-Dec-08 01:58N 26°06' W 080°07'0 0.0
2017-Dec-08 01:28N 26°06' W 080°07'0 0.0
2017-Dec-08 00:49N 26°06' W 080°07'0 0.0
2017-Dec-08 00:19N 26°06' W 080°07'0 0.0
2017-Dec-07 23:49N 26°06' W 080°07'0 0.0
2017-Dec-07 23:22N 26°06' W 080°07'0 0.0
2017-Dec-07 22:52N 26°06' W 080°07'0 0.0
2017-Dec-07 22:22N 26°06' W 080°07'0 0.0
2017-Dec-07 21:52N 26°06' W 080°07'0 0.0
2017-Dec-07 21:22N 26°06' W 080°07'0 0.0
2017-Dec-07 20:55N 26°06' W 080°07'0 0.0
2017-Dec-07 20:25N 26°06' W 080°07'0 0.0
2017-Dec-07 19:55N 26°06' W 080°07'0 0.0
2017-Dec-07 19:10N 26°06' W 080°07'0 0.0
2017-Dec-07 18:55N 26°06' W 080°07'0 0.0
2017-Dec-07 18:25N 26°06' W 080°07'0 0.0
2017-Dec-07 17:58N 26°06' W 080°07'0 0.0
2017-Dec-07 17:28N 26°06' W 080°07'0 0.0
2017-Dec-07 16:58N 26°06' W 080°07'0 0.0
2017-Dec-07 16:28N 26°06' W 080°07'0 0.0
2017-Dec-07 15:58N 26°06' W 080°07'0 0.0
2017-Dec-07 15:25N 26°06' W 080°07'0 0.0
2017-Dec-07 14:58N 26°06' W 080°07'0 0.0
2017-Dec-07 14:28N 26°06' W 080°07'0 0.0
2017-Dec-07 13:58N 26°06' W 080°07'0 0.0
2017-Dec-07 13:28N 26°06' W 080°07'0 0.0
2017-Dec-07 12:58N 26°06' W 080°07'0 0.0
2017-Dec-07 12:28N 26°06' W 080°07'0 0.0
2017-Dec-07 11:58N 26°06' W 080°07'0 0.0
2017-Dec-07 11:28N 26°06' W 080°07'0 0.0
2017-Dec-07 10:49N 26°06' W 080°07'0 0.0
2017-Dec-07 10:19N 26°06' W 080°07'0 0.0
2017-Dec-07 09:49N 26°06' W 080°07'0 0.0
2017-Dec-07 09:22N 26°06' W 080°07'0 0.0
2017-Dec-07 08:52N 26°06' W 080°07'0 0.0
2017-Dec-07 08:22N 26°06' W 080°07'0 0.0
2017-Dec-07 07:52N 26°06' W 080°07'0 0.0
2017-Dec-07 07:22N 26°06' W 080°07'0 0.0
2017-Dec-07 06:55N 26°06' W 080°07'0 0.0
2017-Dec-07 06:22N 26°06' W 080°07'0 0.0
2017-Dec-07 05:55N 26°06' W 080°07'0 0.0
2017-Dec-07 05:25N 26°06' W 080°07'0 0.0
2017-Dec-07 04:55N 26°06' W 080°07'0 0.0
2017-Dec-07 04:13N 26°06' W 080°07'0 0.0
2017-Dec-07 03:58N 26°06' W 080°07'0 0.0
2017-Dec-07 03:28N 26°06' W 080°07'0 0.0
2017-Dec-07 02:58N 26°06' W 080°07'1 1.1
2017-Dec-07 02:30N 26°06' W 080°07'3 6.4
2017-Dec-07 02:00N 26°07' W 080°04'1 1.2
2017-Dec-07 01:28N 26°08' W 080°04'0 0.1
2017-Dec-07 00:58N 26°08' W 080°05'0 0.0
2017-Dec-07 00:28N 26°08' W 080°05'0 0.0
2017-Dec-06 23:58N 26°08' W 080°05'0 0.0
2017-Dec-06 23:28N 26°08' W 080°05'0 0.0
2017-Dec-06 22:58N 26°08' W 080°05'0 0.0
2017-Dec-06 22:28N 26°08' W 080°05'0 0.0
2017-Dec-06 21:58N 26°08' W 080°05'0 0.0
2017-Dec-06 21:28N 26°08' W 080°05'0 0.0
2017-Dec-06 20:58N 26°08' W 080°05'  
2017-Dec-04 10:23N 32°05' W 081°04'0 0.0
2017-Dec-04 09:53N 32°05' W 081°04'0 0.0
2017-Dec-04 09:23N 32°05' W 081°04'0 0.0
2017-Dec-04 08:59N 32°05' W 081°04'0 0.0
2017-Dec-04 08:29N 32°05' W 081°04'0 0.0
2017-Dec-04 07:59N 32°05' W 081°04'0 0.0
2017-Dec-04 07:29N 32°05' W 081°04'0 0.0
2017-Dec-04 06:59N 32°05' W 081°04'0 0.0
2017-Dec-04 06:23N 32°05' W 081°04'0 0.0
2017-Dec-04 05:59N 32°05' W 081°04'0 0.0
2017-Dec-04 05:29N 32°05' W 081°04'0 0.0
2017-Dec-04 04:59N 32°05' W 081°04'0 0.0
2017-Dec-04 04:29N 32°05' W 081°04'0 0.0
2017-Dec-04 03:53N 32°05' W 081°04'0 0.0
2017-Dec-04 03:29N 32°05' W 081°04'0 0.0
2017-Dec-04 02:59N 32°05' W 081°04'0 0.0
2017-Dec-04 02:29N 32°05' W 081°04'0 0.0
2017-Dec-04 01:59N 32°05' W 081°04'0 0.0
2017-Dec-04 01:29N 32°05' W 081°04'0 0.0
2017-Dec-04 00:59N 32°05' W 081°04'0 0.0
2017-Dec-04 00:29N 32°05' W 081°04'0 0.0
2017-Dec-03 23:59N 32°05' W 081°04'0 0.0
2017-Dec-03 23:29N 32°05' W 081°04'0 0.0
2017-Dec-03 22:59N 32°05' W 081°04'0 0.0
2017-Dec-03 22:29N 32°05' W 081°04'0 0.0
2017-Dec-03 21:59N 32°05' W 081°04'0 0.0
2017-Dec-03 21:29N 32°05' W 081°04'0 0.0
2017-Dec-03 20:59N 32°05' W 081°04'0 0.0
2017-Dec-03 20:29N 32°05' W 081°04'0 0.0
2017-Dec-03 19:59N 32°05' W 081°04'0 0.0
2017-Dec-03 19:17N 32°05' W 081°04'0 0.0
2017-Dec-03 18:59N 32°05' W 081°04'0 0.0
2017-Dec-03 18:29N 32°05' W 081°04'0 0.0
2017-Dec-03 17:59N 32°05' W 081°04'0 0.0
2017-Dec-03 17:29N 32°05' W 081°04'0 0.0
2017-Dec-03 16:59N 32°05' W 081°04'0 0.0
2017-Dec-03 16:29N 32°05' W 081°04'0 0.0
2017-Dec-03 15:59N 32°05' W 081°04'0 0.0
2017-Dec-03 15:29N 32°05' W 081°04'0 0.0
2017-Dec-03 14:53N 32°05' W 081°04'0 0.0
2017-Dec-03 14:29N 32°05' W 081°04'0 0.0
2017-Dec-03 13:59N 32°05' W 081°04'0 0.0
2017-Dec-03 13:23N 32°05' W 081°04'0 0.0
2017-Dec-03 12:59N 32°05' W 081°04'0 0.0
2017-Dec-03 12:29N 32°05' W 081°04'0 0.0
2017-Dec-03 11:59N 32°05' W 081°04'0 0.0
2017-Dec-03 11:29N 32°05' W 081°04'0 0.0
2017-Dec-03 10:59N 32°05' W 081°04'0 0.0
2017-Dec-03 10:29N 32°05' W 081°04'0 0.0
2017-Dec-03 09:59N 32°05' W 081°04'0 0.0
2017-Dec-03 09:29N 32°05' W 081°04'0 0.0
2017-Dec-03 08:59N 32°05' W 081°04'0 0.0
2017-Dec-03 08:23N 32°05' W 081°04'0 0.0
2017-Dec-03 07:59N 32°05' W 081°04'0 0.0
2017-Dec-03 07:29N 32°05' W 081°04'0 0.0
2017-Dec-03 06:59N 32°05' W 081°04'0 0.0
2017-Dec-03 06:23N 32°05' W 081°04'0 0.0
2017-Dec-03 05:59N 32°05' W 081°04'0 0.0
2017-Dec-03 05:29N 32°05' W 081°04'0 0.0
2017-Dec-03 04:59N 32°05' W 081°04'0 0.0
2017-Dec-03 04:29N 32°05' W 081°04'0 0.0
2017-Dec-03 03:59N 32°05' W 081°04'0 0.0
2017-Dec-03 03:29N 32°05' W 081°04'0 0.0
2017-Dec-03 02:59N 32°05' W 081°04'0 0.0
2017-Dec-03 02:29N 32°05' W 081°04'0 0.0
2017-Dec-03 01:59N 32°05' W 081°04'0 0.0
2017-Dec-03 01:29N 32°05' W 081°04'0 0.0
2017-Dec-03 00:59N 32°05' W 081°04'0 0.0
2017-Dec-03 00:29N 32°05' W 081°04'0 0.0
2017-Dec-02 23:59N 32°05' W 081°04'0 0.0
2017-Dec-02 23:29N 32°05' W 081°04'0 0.0
2017-Dec-02 22:59N 32°05' W 081°04'0 0.0
2017-Dec-02 22:29N 32°05' W 081°04'0 0.0
2017-Dec-02 21:59N 32°05' W 081°04'0 0.0
2017-Dec-02 21:29N 32°05' W 081°04'0 0.0
2017-Dec-02 20:59N 32°05' W 081°04'0 0.0
2017-Dec-02 20:29N 32°05' W 081°04'0 0.0
2017-Dec-02 19:59N 32°05' W 081°04'0 0.0
2017-Dec-02 19:29N 32°05' W 081°04'0 0.0
2017-Dec-02 18:59N 32°05' W 081°04'0 0.0
2017-Dec-02 18:29N 32°05' W 081°04'0 0.0
2017-Dec-02 17:59N 32°05' W 081°04'0 0.0
2017-Dec-02 17:29N 32°05' W 081°04'0 0.0
2017-Dec-02 16:53N 32°05' W 081°04'0 0.0
2017-Dec-02 16:29N 32°05' W 081°04'0 0.0
2017-Dec-02 15:59N 32°05' W 081°04'0 0.0
2017-Dec-02 15:17N 32°05' W 081°04'0 0.0
2017-Dec-02 14:59N 32°05' W 081°04'0 0.0
2017-Dec-02 14:29N 32°05' W 081°04'0 0.0
2017-Dec-02 13:59N 32°05' W 081°04'0 0.0
2017-Dec-02 13:23N 32°05' W 081°04'0 0.0
2017-Dec-02 12:59N 32°05' W 081°04'0 0.0
2017-Dec-02 12:29N 32°05' W 081°04'0 0.0
2017-Dec-02 11:59N 32°05' W 081°04'0 0.0
2017-Dec-02 11:29N 32°05' W 081°04'0 0.0
2017-Dec-02 10:59N 32°05' W 081°04'0 0.0
2017-Dec-02 10:29N 32°05' W 081°04'0 0.0
2017-Dec-02 09:59N 32°05' W 081°04'0 0.0
2017-Dec-02 09:29N 32°05' W 081°04'0 0.0
2017-Dec-02 08:59N 32°05' W 081°04'0 0.0
2017-Dec-02 08:29N 32°05' W 081°04'0 0.0
2017-Dec-02 07:59N 32°05' W 081°04'0 0.0
2017-Dec-02 07:29N 32°05' W 081°04'0 0.0
2017-Dec-02 06:53N 32°05' W 081°04'0 0.0
2017-Dec-02 06:29N 32°05' W 081°04'0 0.0
2017-Dec-02 05:59N 32°05' W 081°04'0 0.0
2017-Dec-02 05:29N 32°05' W 081°04'0 0.0
2017-Dec-02 04:59N 32°05' W 081°04'0 0.0
2017-Dec-02 04:29N 32°05' W 081°04'0 0.0
2017-Dec-02 03:59N 32°05' W 081°04'0 0.0
2017-Dec-02 03:29N 32°05' W 081°04'0 0.0
2017-Dec-02 02:59N 32°05' W 081°04'0 0.0
2017-Dec-02 02:29N 32°05' W 081°04'0 0.0
2017-Dec-02 01:59N 32°05' W 081°04'0 0.0
2017-Dec-02 01:29N 32°05' W 081°04'0 0.0
2017-Dec-02 00:59N 32°05' W 081°04'0 0.0
2017-Dec-02 00:29N 32°05' W 081°04'0 0.0
2017-Dec-01 23:59N 32°05' W 081°04'0 0.0
2017-Dec-01 23:29N 32°05' W 081°04'0 0.0
2017-Dec-01 22:53N 32°05' W 081°04'0 0.0
2017-Dec-01 22:29N 32°05' W 081°04'0 0.0
2017-Dec-01 21:59N 32°05' W 081°04'0 0.0
2017-Dec-01 21:29N 32°05' W 081°04'0 0.0
2017-Dec-01 20:59N 32°05' W 081°04'0 0.0
2017-Dec-01 20:29N 32°05' W 081°04'0 0.0
2017-Dec-01 19:59N 32°05' W 081°04'0 0.0
2017-Dec-01 19:29N 32°05' W 081°04'0 0.0
2017-Dec-01 18:59N 32°05' W 081°04'0 0.0
2017-Dec-01 18:29N 32°05' W 081°04'0 0.0
2017-Dec-01 17:59N 32°05' W 081°04'0 0.0
2017-Dec-01 17:29N 32°05' W 081°04'0 0.0
2017-Dec-01 16:59N 32°05' W 081°04'0 0.0
2017-Dec-01 16:23N 32°05' W 081°04'0 0.0
2017-Dec-01 15:53N 32°05' W 081°04'0 0.0
2017-Dec-01 15:29N 32°05' W 081°04'0 0.0
2017-Dec-01 14:59N 32°05' W 081°04'0 0.0
2017-Dec-01 14:29N 32°05' W 081°04'0 0.0
2017-Dec-01 13:59N 32°05' W 081°04'0 0.0
2017-Dec-01 13:29N 32°05' W 081°04'0 0.0
2017-Dec-01 12:53N 32°05' W 081°04'0 0.0
2017-Dec-01 12:29N 32°05' W 081°04'0 0.0
2017-Dec-01 11:53N 32°05' W 081°04'0 0.0
2017-Dec-01 11:29N 32°05' W 081°04'0 0.0
2017-Dec-01 10:59N 32°05' W 081°04'0 0.0
2017-Dec-01 10:29N 32°05' W 081°04'0 0.0
2017-Dec-01 09:59N 32°05' W 081°04'0 0.0
2017-Dec-01 09:29N 32°05' W 081°04'0 0.0
2017-Dec-01 08:59N 32°05' W 081°04'0 0.0
2017-Dec-01 08:23N 32°05' W 081°04'0 0.0
2017-Dec-01 07:59N 32°05' W 081°04'0 0.0
2017-Dec-01 07:29N 32°05' W 081°04'0 0.0
2017-Dec-01 06:59N 32°05' W 081°04'0 0.0
2017-Dec-01 06:29N 32°05' W 081°04'0 0.0
2017-Dec-01 05:59N 32°05' W 081°04'0 0.0
2017-Dec-01 05:29N 32°05' W 081°04'0 0.0
2017-Dec-01 04:59N 32°05' W 081°04'0 0.0
2017-Dec-01 04:29N 32°05' W 081°04'0 0.0
2017-Dec-01 03:47N 32°05' W 081°04'0 0.0
2017-Dec-01 03:30N 32°05' W 081°04'2 3.9
2017-Dec-01 03:00N 32°06' W 081°06'3 6.9
2017-Dec-01 02:30N 32°08' W 081°09'0 0.5
2017-Dec-01 02:00N 32°09' W 081°09'0 0.0
2017-Dec-01 01:30N 32°09' W 081°09'0 0.0
2017-Dec-01 00:54N 32°09' W 081°09'0 0.0
2017-Dec-01 00:30N 32°09' W 081°09'0 0.0
2017-Dec-01 00:00N 32°09' W 081°09'0 0.0
2017-Nov-30 23:30N 32°09' W 081°09'0 0.0
2017-Nov-30 22:54N 32°09' W 081°09'0 0.0
2017-Nov-30 22:30N 32°09' W 081°09'0 0.0
2017-Nov-30 22:00N 32°09' W 081°09'0 0.0
2017-Nov-30 21:18N 32°09' W 081°09'0 0.0
2017-Nov-30 21:00N 32°09' W 081°09'0 0.0
2017-Nov-30 20:30N 32°09' W 081°09'0 0.0
2017-Nov-30 20:00N 32°09' W 081°09'0 0.0
2017-Nov-30 19:30N 32°09' W 081°09'0 0.0
2017-Nov-30 18:54N 32°09' W 081°09'0 0.0
2017-Nov-30 18:30N 32°09' W 081°09'0 0.0
2017-Nov-30 18:00N 32°09' W 081°09'0 0.0
2017-Nov-30 17:30N 32°09' W 081°09'0 0.0
2017-Nov-30 17:00N 32°09' W 081°09'0 0.0
2017-Nov-30 16:30N 32°09' W 081°09'0 0.0
2017-Nov-30 15:48N 32°09' W 081°09'0 0.0
2017-Nov-30 15:30N 32°09' W 081°09'0 0.0
2017-Nov-30 15:00N 32°09' W 081°09'0 0.0
2017-Nov-30 14:30N 32°09' W 081°09'0 0.0
2017-Nov-30 14:00N 32°09' W 081°09'0 0.0
2017-Nov-30 13:30N 32°09' W 081°09'0 0.0
2017-Nov-30 13:00N 32°09' W 081°09'0 0.0
2017-Nov-30 12:30N 32°09' W 081°09'0 0.0
2017-Nov-30 12:00N 32°09' W 081°09'0 0.0
2017-Nov-30 11:30N 32°09' W 081°09'0 0.0
2017-Nov-30 11:00N 32°09' W 081°09'0 0.0
2017-Nov-30 10:30N 32°09' W 081°09'0 0.0
2017-Nov-30 10:00N 32°09' W 081°09'0 0.0
2017-Nov-30 09:30N 32°09' W 081°09'0 0.0
2017-Nov-30 09:00N 32°09' W 081°09'0 0.0
2017-Nov-30 08:30N 32°09' W 081°09'0 0.0
2017-Nov-30 07:54N 32°09' W 081°09'0 0.0
2017-Nov-30 07:30N 32°09' W 081°09'0 0.0
2017-Nov-30 06:48N 32°09' W 081°09'0 0.0
2017-Nov-30 06:30N 32°09' W 081°09'0 0.0
2017-Nov-30 06:00N 32°09' W 081°09'0 0.0
2017-Nov-30 05:30N 32°09' W 081°09'0 0.0
2017-Nov-30 05:00N 32°09' W 081°09'0 0.0
2017-Nov-30 04:30N 32°09' W 081°09'0 0.0
2017-Nov-30 03:54N 32°09' W 081°09'0 0.0
2017-Nov-30 03:30N 32°09' W 081°09'0 0.0
2017-Nov-30 03:00N 32°09' W 081°09'0 0.0
2017-Nov-30 02:30N 32°09' W 081°09'0 0.0
2017-Nov-30 02:00N 32°09' W 081°09'0 0.0
2017-Nov-30 01:24N 32°09' W 081°09'0 0.0
2017-Nov-30 00:54N 32°09' W 081°09'0 0.0
2017-Nov-30 00:30N 32°09' W 081°09'2 3.3
2017-Nov-30 00:00N 32°07' W 081°08'3 5.6
2017-Nov-29 23:30N 32°05' W 081°06'3 6.4
2017-Nov-29 23:00N 32°05' W 081°02'5 9.7
2017-Nov-29 22:30N 32°03' W 080°56'612.0
2017-Nov-29 22:00N 32°02' W 080°50'713.2
2017-Nov-29 21:30N 31°58' W 080°43'4 8.4
2017-Nov-29 21:00N 31°58' W 080°38'3 5.9
2017-Nov-29 20:30N 32°00' W 080°37'0 0.1
2017-Nov-29 19:50N 32°00' W 080°37'0 0.0
2017-Nov-29 19:26N 32°00' W 080°37'0 0.0
2017-Nov-29 18:56N 32°00' W 080°37'0 0.0
2017-Nov-29 18:20N 32°00' W 080°37'0 0.0
2017-Nov-29 17:50N 32°00' W 080°37'0 0.0
2017-Nov-29 17:08N 32°00' W 080°37'0 0.0
2017-Nov-29 16:20N 32°00' W 080°37'0 0.0
2017-Nov-29 15:56N 32°00' W 080°37'0 0.0
2017-Nov-29 15:26N 32°00' W 080°37'0 0.0
2017-Nov-29 14:56N 32°00' W 080°37'0 0.0
2017-Nov-29 14:26N 32°00' W 080°37'0 0.0
2017-Nov-29 13:56N 32°00' W 080°37'0 0.0
2017-Nov-29 13:26N 32°00' W 080°37'0 0.0
2017-Nov-29 12:56N 32°00' W 080°37'0 0.0
2017-Nov-29 12:26N 32°00' W 080°37'0 0.0
2017-Nov-29 11:56N 32°00' W 080°37'0 0.0
2017-Nov-29 11:26N 32°00' W 080°37'0 0.1
2017-Nov-29 10:56N 32°00' W 080°37'0 0.0
2017-Nov-29 10:26N 32°00' W 080°37'0 0.0
2017-Nov-29 09:44N 32°00' W 080°37'0 0.0
2017-Nov-29 09:26N 32°00' W 080°37'0 0.0
2017-Nov-29 08:44N 32°00' W 080°37'0 0.0
2017-Nov-29 07:50N 32°00' W 080°37'0 0.0
2017-Nov-29 02:32N 32°00' W 080°37'0 0.1
2017-Nov-29 02:26N 32°00' W 080°37'0 0.0
2017-Nov-29 01:56N 32°00' W 080°37'0 0.0
2017-Nov-29 01:26N 32°00' W 080°37'0 0.0
2017-Nov-29 00:50N 32°00' W 080°37'0 0.0
2017-Nov-29 00:26N 32°00' W 080°37'0 0.0
2017-Nov-28 23:56N 32°00' W 080°37'0 0.0
2017-Nov-28 23:26N 32°00' W 080°37'0 0.0
2017-Nov-28 22:56N 32°00' W 080°37'0 0.0
2017-Nov-28 22:26N 32°00' W 080°37'0 0.0
2017-Nov-28 21:50N 32°00' W 080°37'0 0.0
2017-Nov-28 21:20N 32°00' W 080°37'0 0.0
2017-Nov-28 20:56N 32°00' W 080°37'0 0.0
2017-Nov-28 20:26N 32°00' W 080°37'0 0.0
2017-Nov-28 19:44N 32°00' W 080°37'0 0.0
2017-Nov-28 19:20N 32°00' W 080°37'0 0.0
2017-Nov-28 18:56N 32°00' W 080°37'0 0.0
2017-Nov-28 18:26N 32°00' W 080°37'0 0.0
2017-Nov-28 17:56N 32°00' W 080°37'0 0.0
2017-Nov-28 17:26N 32°00' W 080°37'0 0.0
2017-Nov-28 16:56N 32°00' W 080°37'0 0.0
2017-Nov-28 16:26N 32°00' W 080°37'0 0.0
2017-Nov-28 15:50N 32°00' W 080°37'0 0.0
2017-Nov-28 14:56N 32°00' W 080°37'0 0.0
2017-Nov-28 14:26N 32°00' W 080°37'0 0.0
2017-Nov-28 13:02N 32°00' W 080°37'0 0.0
2017-Nov-28 12:56N 32°00' W 080°37'  

Dump ship's entire track history